sensor_id;sensor_type;location;lat;lon;timestamp;temperature;humidity
32296;DHT22;18781;51.550;5.418;2022-10-01T00:00:33;15.20;66.60
32296;DHT22;18781;51.550;5.418;2022-10-01T00:02:59;15.20;66.60
32296;DHT22;18781;51.550;5.418;2022-10-01T00:05:25;15.20;66.50
32296;DHT22;18781;51.550;5.418;2022-10-01T00:07:51;15.10;66.60
32296;DHT22;18781;51.550;5.418;2022-10-01T00:10:17;15.20;66.90
32296;DHT22;18781;51.550;5.418;2022-10-01T00:12:47;15.10;66.90
32296;DHT22;18781;51.550;5.418;2022-10-01T00:15:14;15.10;67.10
32296;DHT22;18781;51.550;5.418;2022-10-01T00:17:41;15.10;67.30
32296;DHT22;18781;51.550;5.418;2022-10-01T00:20:09;15.10;67.30
32296;DHT22;18781;51.550;5.418;2022-10-01T00:22:35;15.10;67.50
32296;DHT22;18781;51.550;5.418;2022-10-01T00:25:01;15.10;67.40
32296;DHT22;18781;51.550;5.418;2022-10-01T00:27:28;15.10;67.60
32296;DHT22;18781;51.550;5.418;2022-10-01T00:29:53;15.10;67.50
32296;DHT22;18781;51.550;5.418;2022-10-01T00:32:23;15.10;67.70
32296;DHT22;18781;51.550;5.418;2022-10-01T00:34:49;15.00;67.80
32296;DHT22;18781;51.550;5.418;2022-10-01T00:37:15;15.00;67.80
32296;DHT22;18781;51.550;5.418;2022-10-01T00:39:42;15.00;67.80
32296;DHT22;18781;51.550;5.418;2022-10-01T00:42:20;15.00;67.90
32296;DHT22;18781;51.550;5.418;2022-10-01T00:44:46;15.00;68.00
32296;DHT22;18781;51.550;5.418;2022-10-01T00:47:26;15.00;68.00
32296;DHT22;18781;51.550;5.418;2022-10-01T00:49:57;15.00;68.40
32296;DHT22;18781;51.550;5.418;2022-10-01T00:52:27;15.00;67.20
32296;DHT22;18781;51.550;5.418;2022-10-01T00:55:04;15.00;68.00
32296;DHT22;18781;51.550;5.418;2022-10-01T00:57:31;15.00;68.30
32296;DHT22;18781;51.550;5.418;2022-10-01T01:00:02;15.00;68.30
32296;DHT22;18781;51.550;5.418;2022-10-01T01:02:28;15.00;68.40
32296;DHT22;18781;51.550;5.418;2022-10-01T01:04:53;15.00;68.60
32296;DHT22;18781;51.550;5.418;2022-10-01T01:07:19;15.00;68.50
32296;DHT22;18781;51.550;5.418;2022-10-01T01:09:47;15.00;68.80
32296;DHT22;18781;51.550;5.418;2022-10-01T01:12:20;15.00;68.80
32296;DHT22;18781;51.550;5.418;2022-10-01T01:18:06;15.00;69.30
32296;DHT22;18781;51.550;5.418;2022-10-01T01:28:33;15.00;70.00
32296;DHT22;18781;51.550;5.418;2022-10-01T01:31:07;15.00;69.80
32296;DHT22;18781;51.550;5.418;2022-10-01T01:33:35;15.00;69.90
32296;DHT22;18781;51.550;5.418;2022-10-01T01:36:07;14.90;69.90
32296;DHT22;18781;51.550;5.418;2022-10-01T01:38:44;14.90;70.20
32296;DHT22;18781;51.550;5.418;2022-10-01T01:41:13;14.90;70.40
32296;DHT22;18781;51.550;5.418;2022-10-01T01:43:42;14.80;70.10
32296;DHT22;18781;51.550;5.418;2022-10-01T01:46:11;14.90;70.40
32296;DHT22;18781;51.550;5.418;2022-10-01T01:48:42;14.90;70.30
32296;DHT22;18781;51.550;5.418;2022-10-01T01:53:41;14.90;70.60
32296;DHT22;18781;51.550;5.418;2022-10-01T01:56:07;14.90;70.70
32296;DHT22;18781;51.550;5.418;2022-10-01T01:58:37;14.90;70.80
32296;DHT22;18781;51.550;5.418;2022-10-01T02:01:03;14.90;70.70
32296;DHT22;18781;51.550;5.418;2022-10-01T02:03:29;14.80;70.70
32296;DHT22;18781;51.550;5.418;2022-10-01T02:06:17;14.90;70.80
32296;DHT22;18781;51.550;5.418;2022-10-01T02:08:48;14.90;71.10
32296;DHT22;18781;51.550;5.418;2022-10-01T02:11:23;14.90;70.10
32296;DHT22;18781;51.550;5.418;2022-10-01T02:18:59;14.80;71.30
32296;DHT22;18781;51.550;5.418;2022-10-01T02:21:39;14.80;71.30
32296;DHT22;18781;51.550;5.418;2022-10-01T02:26:38;14.80;71.60
32296;DHT22;18781;51.550;5.418;2022-10-01T02:29:07;14.80;71.70
32296;DHT22;18781;51.550;5.418;2022-10-01T02:31:35;14.80;71.90
32296;DHT22;18781;51.550;5.418;2022-10-01T02:34:03;14.80;70.90
32296;DHT22;18781;51.550;5.418;2022-10-01T02:36:31;14.70;71.90
32296;DHT22;18781;51.550;5.418;2022-10-01T02:38:58;14.80;72.30
32296;DHT22;18781;51.550;5.418;2022-10-01T02:41:29;14.80;72.20
32296;DHT22;18781;51.550;5.418;2022-10-01T02:44:07;14.70;72.40
32296;DHT22;18781;51.550;5.418;2022-10-01T02:46:58;14.80;72.30
32296;DHT22;18781;51.550;5.418;2022-10-01T02:49:27;14.70;72.40
32296;DHT22;18781;51.550;5.418;2022-10-01T02:55:00;14.80;72.50
32296;DHT22;18781;51.550;5.418;2022-10-01T02:57:28;14.70;72.60
32296;DHT22;18781;51.550;5.418;2022-10-01T02:59:57;14.80;72.80
32296;DHT22;18781;51.550;5.418;2022-10-01T03:02:25;14.80;72.70
32296;DHT22;18781;51.550;5.418;2022-10-01T03:04:54;14.80;72.70
32296;DHT22;18781;51.550;5.418;2022-10-01T03:07:25;14.80;72.60
32296;DHT22;18781;51.550;5.418;2022-10-01T03:09:51;14.80;72.70
32296;DHT22;18781;51.550;5.418;2022-10-01T03:12:17;14.80;72.80
32296;DHT22;18781;51.550;5.418;2022-10-01T03:14:43;14.80;72.90
32296;DHT22;18781;51.550;5.418;2022-10-01T03:17:10;14.80;72.80
32296;DHT22;18781;51.550;5.418;2022-10-01T03:19:36;14.80;72.80
32296;DHT22;18781;51.550;5.418;2022-10-01T03:22:02;14.80;72.90
32296;DHT22;18781;51.550;5.418;2022-10-01T03:24:28;14.90;73.00
32296;DHT22;18781;51.550;5.418;2022-10-01T03:26:55;14.80;72.90
32296;DHT22;18781;51.550;5.418;2022-10-01T03:29:22;14.90;73.10
32296;DHT22;18781;51.550;5.418;2022-10-01T03:31:47;14.90;73.00
32296;DHT22;18781;51.550;5.418;2022-10-01T03:34:13;14.80;73.00
32296;DHT22;18781;51.550;5.418;2022-10-01T03:36:39;14.90;73.00
32296;DHT22;18781;51.550;5.418;2022-10-01T03:39:04;14.90;73.10
32296;DHT22;18781;51.550;5.418;2022-10-01T03:41:30;14.90;73.00
32296;DHT22;18781;51.550;5.418;2022-10-01T03:43:56;14.90;73.00
32296;DHT22;18781;51.550;5.418;2022-10-01T03:46:21;14.90;73.10
32296;DHT22;18781;51.550;5.418;2022-10-01T03:48:47;14.90;73.20
32296;DHT22;18781;51.550;5.418;2022-10-01T03:51:14;14.90;73.10
32296;DHT22;18781;51.550;5.418;2022-10-01T03:53:39;15.00;73.10
32296;DHT22;18781;51.550;5.418;2022-10-01T03:56:05;15.00;73.70
32296;DHT22;18781;51.550;5.418;2022-10-01T03:58:31;15.00;73.20
32296;DHT22;18781;51.550;5.418;2022-10-01T04:00:57;15.00;73.20
32296;DHT22;18781;51.550;5.418;2022-10-01T04:03:22;15.00;73.20
32296;DHT22;18781;51.550;5.418;2022-10-01T04:05:48;15.00;73.20
32296;DHT22;18781;51.550;5.418;2022-10-01T04:08:15;15.10;73.30
32296;DHT22;18781;51.550;5.418;2022-10-01T04:10:40;15.10;73.30
32296;DHT22;18781;51.550;5.418;2022-10-01T04:13:06;15.10;73.40
32296;DHT22;18781;51.550;5.418;2022-10-01T04:15:33;15.10;73.40
32296;DHT22;18781;51.550;5.418;2022-10-01T04:17:59;15.20;73.40
32296;DHT22;18781;51.550;5.418;2022-10-01T04:20:26;15.20;73.50
32296;DHT22;18781;51.550;5.418;2022-10-01T04:22:51;15.20;73.40
32296;DHT22;18781;51.550;5.418;2022-10-01T04:25:17;15.20;73.50
32296;DHT22;18781;51.550;5.418;2022-10-01T04:27:57;15.20;73.50
32296;DHT22;18781;51.550;5.418;2022-10-01T04:30:25;15.20;73.80
32296;DHT22;18781;51.550;5.418;2022-10-01T04:32:51;15.20;73.40
32296;DHT22;18781;51.550;5.418;2022-10-01T04:35:17;15.20;73.40
32296;DHT22;18781;51.550;5.418;2022-10-01T04:37:42;15.30;73.50
32296;DHT22;18781;51.550;5.418;2022-10-01T04:40:08;15.30;73.50
32296;DHT22;18781;51.550;5.418;2022-10-01T04:42:38;15.30;73.50
32296;DHT22;18781;51.550;5.418;2022-10-01T04:45:05;15.30;73.60
32296;DHT22;18781;51.550;5.418;2022-10-01T04:47:31;15.30;73.60
32296;DHT22;18781;51.550;5.418;2022-10-01T04:49:57;15.40;73.70
32296;DHT22;18781;51.550;5.418;2022-10-01T04:52:22;15.40;73.70
32296;DHT22;18781;51.550;5.418;2022-10-01T04:54:48;15.40;73.80
32296;DHT22;18781;51.550;5.418;2022-10-01T04:57:16;15.40;73.70
32296;DHT22;18781;51.550;5.418;2022-10-01T04:59:42;15.40;73.70
32296;DHT22;18781;51.550;5.418;2022-10-01T05:02:08;15.40;73.80
32296;DHT22;18781;51.550;5.418;2022-10-01T05:04:33;15.50;73.90
32296;DHT22;18781;51.550;5.418;2022-10-01T05:06:59;15.50;74.00
32296;DHT22;18781;51.550;5.418;2022-10-01T05:09:24;15.50;73.90
32296;DHT22;18781;51.550;5.418;2022-10-01T05:11:50;15.50;73.90
32296;DHT22;18781;51.550;5.418;2022-10-01T05:14:16;15.50;74.00
32296;DHT22;18781;51.550;5.418;2022-10-01T05:16:44;15.50;74.00
32296;DHT22;18781;51.550;5.418;2022-10-01T05:19:10;15.60;74.10
32296;DHT22;18781;51.550;5.418;2022-10-01T05:21:36;15.60;74.10
32296;DHT22;18781;51.550;5.418;2022-10-01T05:24:02;15.60;74.10
32296;DHT22;18781;51.550;5.418;2022-10-01T05:26:27;15.60;74.10
32296;DHT22;18781;51.550;5.418;2022-10-01T05:28:56;15.60;74.20
32296;DHT22;18781;51.550;5.418;2022-10-01T05:31:23;15.70;74.30
32296;DHT22;18781;51.550;5.418;2022-10-01T05:33:49;15.60;74.20
32296;DHT22;18781;51.550;5.418;2022-10-01T05:36:14;15.70;74.30
32296;DHT22;18781;51.550;5.418;2022-10-01T05:38:40;15.70;74.30
32296;DHT22;18781;51.550;5.418;2022-10-01T05:41:06;15.70;74.30
32296;DHT22;18781;51.550;5.418;2022-10-01T05:43:32;15.70;74.30
32296;DHT22;18781;51.550;5.418;2022-10-01T05:46:01;15.70;74.40
32296;DHT22;18781;51.550;5.418;2022-10-01T05:48:28;15.80;74.60
32296;DHT22;18781;51.550;5.418;2022-10-01T05:50:54;15.80;74.60
32296;DHT22;18781;51.550;5.418;2022-10-01T05:53:19;15.80;74.50
32296;DHT22;18781;51.550;5.418;2022-10-01T05:55:46;15.80;74.50
32296;DHT22;18781;51.550;5.418;2022-10-01T05:58:12;15.80;74.60
32296;DHT22;18781;51.550;5.418;2022-10-01T06:00:39;15.80;74.60
32296;DHT22;18781;51.550;5.418;2022-10-01T06:03:06;15.80;74.60
32296;DHT22;18781;51.550;5.418;2022-10-01T06:05:33;15.80;74.60
32296;DHT22;18781;51.550;5.418;2022-10-01T06:07:59;15.90;74.60
32296;DHT22;18781;51.550;5.418;2022-10-01T06:10:25;15.90;74.60
32296;DHT22;18781;51.550;5.418;2022-10-01T06:13:00;15.90;74.60
32296;DHT22;18781;51.550;5.418;2022-10-01T06:15:27;15.90;74.60
32296;DHT22;18781;51.550;5.418;2022-10-01T06:17:53;15.90;74.60
32296;DHT22;18781;51.550;5.418;2022-10-01T06:20:19;16.00;74.60
32296;DHT22;18781;51.550;5.418;2022-10-01T06:22:52;15.90;74.50
32296;DHT22;18781;51.550;5.418;2022-10-01T06:25:18;16.00;74.90
32296;DHT22;18781;51.550;5.418;2022-10-01T06:27:44;16.00;74.60
32296;DHT22;18781;51.550;5.418;2022-10-01T06:30:15;16.00;74.60
32296;DHT22;18781;51.550;5.418;2022-10-01T06:32:40;16.00;74.70
32296;DHT22;18781;51.550;5.418;2022-10-01T06:35:06;16.10;74.80
32296;DHT22;18781;51.550;5.418;2022-10-01T06:37:35;16.10;74.80
32296;DHT22;18781;51.550;5.418;2022-10-01T06:40:01;16.10;74.90
32296;DHT22;18781;51.550;5.418;2022-10-01T06:42:27;16.10;74.70
32296;DHT22;18781;51.550;5.418;2022-10-01T06:44:52;16.10;74.80
32296;DHT22;18781;51.550;5.418;2022-10-01T06:47:18;16.10;74.90
32296;DHT22;18781;51.550;5.418;2022-10-01T06:49:44;16.20;74.90
32296;DHT22;18781;51.550;5.418;2022-10-01T06:52:09;16.20;75.00
32296;DHT22;18781;51.550;5.418;2022-10-01T06:54:54;16.20;75.00
32296;DHT22;18781;51.550;5.418;2022-10-01T06:57:19;16.20;75.10
32296;DHT22;18781;51.550;5.418;2022-10-01T06:59:45;16.30;75.00
32296;DHT22;18781;51.550;5.418;2022-10-01T07:02:27;16.30;74.90
32296;DHT22;18781;51.550;5.418;2022-10-01T07:04:57;16.30;75.40
32296;DHT22;18781;51.550;5.418;2022-10-01T07:07:34;16.30;75.00
32296;DHT22;18781;51.550;5.418;2022-10-01T07:10:03;16.40;75.90
32296;DHT22;18781;51.550;5.418;2022-10-01T07:12:29;16.40;75.00
32296;DHT22;18781;51.550;5.418;2022-10-01T07:14:55;16.40;75.00
32296;DHT22;18781;51.550;5.418;2022-10-01T07:17:21;16.40;75.10
32296;DHT22;18781;51.550;5.418;2022-10-01T07:19:47;16.50;75.20
32296;DHT22;18781;51.550;5.418;2022-10-01T07:22:12;16.50;75.20
32296;DHT22;18781;51.550;5.418;2022-10-01T07:24:38;16.50;75.30
32296;DHT22;18781;51.550;5.418;2022-10-01T07:27:04;16.60;75.50
32296;DHT22;18781;51.550;5.418;2022-10-01T07:29:30;16.60;75.60
32296;DHT22;18781;51.550;5.418;2022-10-01T07:31:57;16.70;75.60
32296;DHT22;18781;51.550;5.418;2022-10-01T07:34:27;16.70;75.70
32296;DHT22;18781;51.550;5.418;2022-10-01T07:36:53;16.70;75.60
32296;DHT22;18781;51.550;5.418;2022-10-01T07:39:20;16.80;75.60
32296;DHT22;18781;51.550;5.418;2022-10-01T07:41:46;16.80;75.50
32296;DHT22;18781;51.550;5.418;2022-10-01T07:44:11;16.90;75.40
32296;DHT22;18781;51.550;5.418;2022-10-01T07:46:40;16.90;75.30
32296;DHT22;18781;51.550;5.418;2022-10-01T07:49:07;16.90;75.40
32296;DHT22;18781;51.550;5.418;2022-10-01T07:51:33;17.00;75.30
32296;DHT22;18781;51.550;5.418;2022-10-01T07:54:00;16.90;75.20
32296;DHT22;18781;51.550;5.418;2022-10-01T07:56:26;17.00;75.00
32296;DHT22;18781;51.550;5.418;2022-10-01T07:58:55;16.90;74.40
32296;DHT22;18781;51.550;5.418;2022-10-01T08:01:21;17.00;74.40
32296;DHT22;18781;51.550;5.418;2022-10-01T08:03:49;16.90;74.30
32296;DHT22;18781;51.550;5.418;2022-10-01T08:06:16;17.00;74.60
32296;DHT22;18781;51.550;5.418;2022-10-01T08:08:43;16.90;74.60
32296;DHT22;18781;51.550;5.418;2022-10-01T08:11:09;16.90;74.80
32296;DHT22;18781;51.550;5.418;2022-10-01T08:13:38;17.00;75.10
32296;DHT22;18781;51.550;5.418;2022-10-01T08:16:04;17.00;75.20
32296;DHT22;18781;51.550;5.418;2022-10-01T08:18:31;17.00;75.40
32296;DHT22;18781;51.550;5.418;2022-10-01T08:20:58;17.00;75.50
32296;DHT22;18781;51.550;5.418;2022-10-01T08:23:27;17.00;75.70
32296;DHT22;18781;51.550;5.418;2022-10-01T08:26:02;17.10;75.90
32296;DHT22;18781;51.550;5.418;2022-10-01T08:28:28;17.10;76.10
32296;DHT22;18781;51.550;5.418;2022-10-01T08:30:54;17.10;75.90
32296;DHT22;18781;51.550;5.418;2022-10-01T08:33:20;17.10;75.80
32296;DHT22;18781;51.550;5.418;2022-10-01T08:35:46;17.20;75.90
32296;DHT22;18781;51.550;5.418;2022-10-01T08:38:12;17.20;76.10
32296;DHT22;18781;51.550;5.418;2022-10-01T08:40:47;17.30;76.40
32296;DHT22;18781;51.550;5.418;2022-10-01T08:45:52;17.30;77.30
32296;DHT22;18781;51.550;5.418;2022-10-01T08:51:08;17.40;76.20
32296;DHT22;18781;51.550;5.418;2022-10-01T08:53:41;17.40;76.20
32296;DHT22;18781;51.550;5.418;2022-10-01T08:56:26;17.50;76.80
32296;DHT22;18781;51.550;5.418;2022-10-01T08:58:59;17.50;76.60
32296;DHT22;18781;51.550;5.418;2022-10-01T09:01:26;17.60;77.00
32296;DHT22;18781;51.550;5.418;2022-10-01T09:03:54;17.60;75.90
32296;DHT22;18781;51.550;5.418;2022-10-01T09:06:23;17.60;75.80
32296;DHT22;18781;51.550;5.418;2022-10-01T09:20:26;17.80;76.20
32296;DHT22;18781;51.550;5.418;2022-10-01T09:25:32;17.90;75.90
32296;DHT22;18781;51.550;5.418;2022-10-01T09:28:04;17.90;76.20
32296;DHT22;18781;51.550;5.418;2022-10-01T09:30:31;17.90;76.40
32296;DHT22;18781;51.550;5.418;2022-10-01T09:32:59;18.00;76.30
32296;DHT22;18781;51.550;5.418;2022-10-01T09:36:12;18.10;76.40
32296;DHT22;18781;51.550;5.418;2022-10-01T09:41:03;18.20;76.10
32296;DHT22;18781;51.550;5.418;2022-10-01T09:43:31;18.30;75.70
32296;DHT22;18781;51.550;5.418;2022-10-01T09:45:57;18.30;75.50
32296;DHT22;18781;51.550;5.418;2022-10-01T09:51:10;18.40;75.40
32296;DHT22;18781;51.550;5.418;2022-10-01T09:57:05;18.60;75.30
32296;DHT22;18781;51.550;5.418;2022-10-01T09:59:46;18.60;74.70
32296;DHT22;18781;51.550;5.418;2022-10-01T10:02:25;18.70;74.80
32296;DHT22;18781;51.550;5.418;2022-10-01T10:05:13;18.70;74.80
32296;DHT22;18781;51.550;5.418;2022-10-01T10:07:46;18.80;74.80
32296;DHT22;18781;51.550;5.418;2022-10-01T10:10:17;18.90;74.40
32296;DHT22;18781;51.550;5.418;2022-10-01T10:12:47;19.00;73.80
32296;DHT22;18781;51.550;5.418;2022-10-01T10:15:20;19.10;73.00
32296;DHT22;18781;51.550;5.418;2022-10-01T10:17:48;19.20;72.60
32296;DHT22;18781;51.550;5.418;2022-10-01T10:22:50;19.20;72.30
32296;DHT22;18781;51.550;5.418;2022-10-01T10:25:22;19.20;72.00
32296;DHT22;18781;51.550;5.418;2022-10-01T10:27:55;19.20;72.20
32296;DHT22;18781;51.550;5.418;2022-10-01T10:30:23;19.20;71.20
32296;DHT22;18781;51.550;5.418;2022-10-01T10:32:50;19.20;71.40
32296;DHT22;18781;51.550;5.418;2022-10-01T10:35:21;19.20;71.50
32296;DHT22;18781;51.550;5.418;2022-10-01T10:37:51;19.20;71.50
32296;DHT22;18781;51.550;5.418;2022-10-01T10:40:20;19.20;70.80
32296;DHT22;18781;51.550;5.418;2022-10-01T10:42:51;19.10;71.10
32296;DHT22;18781;51.550;5.418;2022-10-01T10:45:19;19.10;71.50
32296;DHT22;18781;51.550;5.418;2022-10-01T10:47:48;19.10;71.60
32296;DHT22;18781;51.550;5.418;2022-10-01T10:52:54;19.10;71.00
32296;DHT22;18781;51.550;5.418;2022-10-01T10:57:48;19.00;70.60
32296;DHT22;18781;51.550;5.418;2022-10-01T11:00:17;19.00;69.80
32296;DHT22;18781;51.550;5.418;2022-10-01T11:03:12;19.00;69.60
32296;DHT22;18781;51.550;5.418;2022-10-01T11:05:41;18.90;69.60
32296;DHT22;18781;51.550;5.418;2022-10-01T11:08:17;18.90;69.80
32296;DHT22;18781;51.550;5.418;2022-10-01T11:16:34;18.90;70.40
32296;DHT22;18781;51.550;5.418;2022-10-01T11:21:58;18.90;70.00
32296;DHT22;18781;51.550;5.418;2022-10-01T11:27:51;19.00;69.70
32296;DHT22;18781;51.550;5.418;2022-10-01T11:30:21;19.00;69.80
32296;DHT22;18781;51.550;5.418;2022-10-01T11:33:02;19.00;69.90
32296;DHT22;18781;51.550;5.418;2022-10-01T11:46:35;19.10;68.80
32296;DHT22;18781;51.550;5.418;2022-10-01T11:51:38;19.10;69.10
32296;DHT22;18781;51.550;5.418;2022-10-01T11:54:08;19.10;68.90
32296;DHT22;18781;51.550;5.418;2022-10-01T11:56:48;19.00;68.80
32296;DHT22;18781;51.550;5.418;2022-10-01T11:59:44;19.00;68.50
32296;DHT22;18781;51.550;5.418;2022-10-01T12:02:29;19.00;68.60
32296;DHT22;18781;51.550;5.418;2022-10-01T12:05:04;18.90;68.90
32296;DHT22;18781;51.550;5.418;2022-10-01T12:10:28;18.90;68.90
32296;DHT22;18781;51.550;5.418;2022-10-01T12:13:05;18.90;69.10
32296;DHT22;18781;51.550;5.418;2022-10-01T12:18:49;18.80;69.90
32296;DHT22;18781;51.550;5.418;2022-10-01T12:21:25;18.80;70.50
32296;DHT22;18781;51.550;5.418;2022-10-01T12:24:00;18.90;70.70
32296;DHT22;18781;51.550;5.418;2022-10-01T12:26:53;18.90;70.60
32296;DHT22;18781;51.550;5.418;2022-10-01T12:35:27;19.20;66.90
32296;DHT22;18781;51.550;5.418;2022-10-01T12:44:09;19.10;66.30
32296;DHT22;18781;51.550;5.418;2022-10-01T12:50:06;19.10;66.10
32296;DHT22;18781;51.550;5.418;2022-10-01T12:52:36;19.00;65.90
32296;DHT22;18781;51.550;5.418;2022-10-01T12:58:31;19.00;66.20
32296;DHT22;18781;51.550;5.418;2022-10-01T13:14:46;19.20;65.30
32296;DHT22;18781;51.550;5.418;2022-10-01T13:17:33;19.30;64.10
32296;DHT22;18781;51.550;5.418;2022-10-01T13:20:33;19.30;63.40
32296;DHT22;18781;51.550;5.418;2022-10-01T13:25:50;19.40;62.50
32296;DHT22;18781;51.550;5.418;2022-10-01T13:28:25;19.40;62.90
32296;DHT22;18781;51.550;5.418;2022-10-01T13:31:00;19.30;62.90
32296;DHT22;18781;51.550;5.418;2022-10-01T13:33:34;19.30;62.70
32296;DHT22;18781;51.550;5.418;2022-10-01T13:36:02;19.30;61.80
32296;DHT22;18781;51.550;5.418;2022-10-01T13:38:41;19.30;62.00
32296;DHT22;18781;51.550;5.418;2022-10-01T13:43:51;19.30;62.50
32296;DHT22;18781;51.550;5.418;2022-10-01T13:46:22;19.30;62.50
32296;DHT22;18781;51.550;5.418;2022-10-01T13:48:49;19.40;62.40
32296;DHT22;18781;51.550;5.418;2022-10-01T13:51:15;19.40;61.80
32296;DHT22;18781;51.550;5.418;2022-10-01T13:56:08;19.50;62.50
32296;DHT22;18781;51.550;5.418;2022-10-01T13:58:39;19.50;62.50
32296;DHT22;18781;51.550;5.418;2022-10-01T14:04:06;19.60;61.40
32296;DHT22;18781;51.550;5.418;2022-10-01T14:06:38;19.60;61.00
32296;DHT22;18781;51.550;5.418;2022-10-01T14:09:23;19.60;61.30
32296;DHT22;18781;51.550;5.418;2022-10-01T14:11:54;19.70;61.80
32296;DHT22;18781;51.550;5.418;2022-10-01T14:14:42;19.70;61.40
32296;DHT22;18781;51.550;5.418;2022-10-01T14:17:31;19.70;61.60
32296;DHT22;18781;51.550;5.418;2022-10-01T14:19:59;19.70;61.20
32296;DHT22;18781;51.550;5.418;2022-10-01T14:31:08;19.70;61.50
32296;DHT22;18781;51.550;5.418;2022-10-01T14:41:39;19.90;59.20
32296;DHT22;18781;51.550;5.418;2022-10-01T14:46:49;20.00;58.70
32296;DHT22;18781;51.550;5.418;2022-10-01T14:49:19;20.00;57.90
32296;DHT22;18781;51.550;5.418;2022-10-01T14:51:50;20.00;58.20
32296;DHT22;18781;51.550;5.418;2022-10-01T14:54:16;20.00;58.00
32296;DHT22;18781;51.550;5.418;2022-10-01T14:56:43;20.00;58.10
32296;DHT22;18781;51.550;5.418;2022-10-01T14:59:47;20.10;58.20
32296;DHT22;18781;51.550;5.418;2022-10-01T15:02:32;20.10;58.30
32296;DHT22;18781;51.550;5.418;2022-10-01T15:04:57;20.10;59.30
32296;DHT22;18781;51.550;5.418;2022-10-01T15:07:24;20.10;57.80
32296;DHT22;18781;51.550;5.418;2022-10-01T15:09:52;20.10;57.30
32296;DHT22;18781;51.550;5.418;2022-10-01T15:12:20;20.10;57.90
32296;DHT22;18781;51.550;5.418;2022-10-01T15:14:52;20.20;57.90
32296;DHT22;18781;51.550;5.418;2022-10-01T15:17:22;20.20;57.90
32296;DHT22;18781;51.550;5.418;2022-10-01T15:19:50;20.20;58.00
32296;DHT22;18781;51.550;5.418;2022-10-01T15:22:23;20.20;57.90
32296;DHT22;18781;51.550;5.418;2022-10-01T15:24:52;20.20;57.80
32296;DHT22;18781;51.550;5.418;2022-10-01T15:27:19;20.20;57.70
32296;DHT22;18781;51.550;5.418;2022-10-01T15:29:49;20.20;58.00
32296;DHT22;18781;51.550;5.418;2022-10-01T15:32:17;20.20;57.20
32296;DHT22;18781;51.550;5.418;2022-10-01T15:34:54;20.20;56.80
32296;DHT22;18781;51.550;5.418;2022-10-01T15:37:27;20.10;56.90
32296;DHT22;18781;51.550;5.418;2022-10-01T15:39:55;20.10;56.30
32296;DHT22;18781;51.550;5.418;2022-10-01T15:42:27;20.10;55.70
32296;DHT22;18781;51.550;5.418;2022-10-01T15:47:34;20.10;56.80
32296;DHT22;18781;51.550;5.418;2022-10-01T15:55:34;20.10;56.40
32296;DHT22;18781;51.550;5.418;2022-10-01T16:03:36;20.10;56.90
32296;DHT22;18781;51.550;5.418;2022-10-01T16:06:06;20.10;56.80
32296;DHT22;18781;51.550;5.418;2022-10-01T16:11:25;20.00;56.60
32296;DHT22;18781;51.550;5.418;2022-10-01T16:19:46;20.00;57.10
32296;DHT22;18781;51.550;5.418;2022-10-01T16:24:48;19.90;56.40
32296;DHT22;18781;51.550;5.418;2022-10-01T16:27:22;19.90;56.50
32296;DHT22;18781;51.550;5.418;2022-10-01T16:29:51;19.80;56.40
32296;DHT22;18781;51.550;5.418;2022-10-01T16:32:16;19.80;56.60
32296;DHT22;18781;51.550;5.418;2022-10-01T16:34:42;19.80;56.60
32296;DHT22;18781;51.550;5.418;2022-10-01T16:37:08;19.70;56.60
32296;DHT22;18781;51.550;5.418;2022-10-01T16:39:33;19.70;56.90
32296;DHT22;18781;51.550;5.418;2022-10-01T16:41:59;19.70;56.90
32296;DHT22;18781;51.550;5.418;2022-10-01T16:44:26;19.60;56.90
32296;DHT22;18781;51.550;5.418;2022-10-01T16:46:52;19.60;57.10
32296;DHT22;18781;51.550;5.418;2022-10-01T16:49:20;19.60;57.40
32296;DHT22;18781;51.550;5.418;2022-10-01T16:51:51;19.50;57.30
32296;DHT22;18781;51.550;5.418;2022-10-01T16:54:24;19.50;57.40
32296;DHT22;18781;51.550;5.418;2022-10-01T16:56:51;19.40;57.40
32296;DHT22;18781;51.550;5.418;2022-10-01T16:59:20;19.40;57.30
32296;DHT22;18781;51.550;5.418;2022-10-01T17:01:48;19.40;57.30
32296;DHT22;18781;51.550;5.418;2022-10-01T17:04:15;19.30;57.40
32296;DHT22;18781;51.550;5.418;2022-10-01T17:06:41;19.30;57.60
32296;DHT22;18781;51.550;5.418;2022-10-01T17:09:07;19.30;57.60
32296;DHT22;18781;51.550;5.418;2022-10-01T17:11:33;19.20;57.70
32296;DHT22;18781;51.550;5.418;2022-10-01T17:14:00;19.20;58.40
32296;DHT22;18781;51.550;5.418;2022-10-01T17:16:29;19.10;58.10
32296;DHT22;18781;51.550;5.418;2022-10-01T17:18:54;19.10;58.20
32296;DHT22;18781;51.550;5.418;2022-10-01T17:21:20;19.00;58.20
32296;DHT22;18781;51.550;5.418;2022-10-01T17:23:45;19.00;58.40
32296;DHT22;18781;51.550;5.418;2022-10-01T17:26:11;19.00;58.60
32296;DHT22;18781;51.550;5.418;2022-10-01T17:28:36;18.90;58.60
32296;DHT22;18781;51.550;5.418;2022-10-01T17:31:05;18.90;58.80
32296;DHT22;18781;51.550;5.418;2022-10-01T17:33:34;18.80;58.90
32296;DHT22;18781;51.550;5.418;2022-10-01T17:36:05;18.80;59.00
32296;DHT22;18781;51.550;5.418;2022-10-01T17:38:30;18.80;59.20
32296;DHT22;18781;51.550;5.418;2022-10-01T17:40:58;18.70;59.20
32296;DHT22;18781;51.550;5.418;2022-10-01T17:43:24;18.70;59.30
32296;DHT22;18781;51.550;5.418;2022-10-01T17:45:58;18.70;59.40
32296;DHT22;18781;51.550;5.418;2022-10-01T17:48:25;18.60;59.60
32296;DHT22;18781;51.550;5.418;2022-10-01T17:51:03;18.60;59.60
32296;DHT22;18781;51.550;5.418;2022-10-01T17:53:33;18.60;59.90
32296;DHT22;18781;51.550;5.418;2022-10-01T17:56:05;18.50;59.80
32296;DHT22;18781;51.550;5.418;2022-10-01T17:58:31;18.50;60.00
32296;DHT22;18781;51.550;5.418;2022-10-01T18:00:56;18.50;59.90
32296;DHT22;18781;51.550;5.418;2022-10-01T18:03:23;18.40;59.90
32296;DHT22;18781;51.550;5.418;2022-10-01T18:05:49;18.40;60.10
32296;DHT22;18781;51.550;5.418;2022-10-01T18:08:15;18.30;60.10
32296;DHT22;18781;51.550;5.418;2022-10-01T18:10:41;18.30;60.20
32296;DHT22;18781;51.550;5.418;2022-10-01T18:13:06;18.30;60.20
32296;DHT22;18781;51.550;5.418;2022-10-01T18:15:32;18.20;60.30
32296;DHT22;18781;51.550;5.418;2022-10-01T18:17:57;18.20;60.40
32296;DHT22;18781;51.550;5.418;2022-10-01T18:20:23;18.10;60.50
32296;DHT22;18781;51.550;5.418;2022-10-01T18:22:49;18.10;60.50
32296;DHT22;18781;51.550;5.418;2022-10-01T18:25:15;18.10;60.50
32296;DHT22;18781;51.550;5.418;2022-10-01T18:27:42;18.00;60.60
32296;DHT22;18781;51.550;5.418;2022-10-01T18:30:08;18.00;60.70
32296;DHT22;18781;51.550;5.418;2022-10-01T18:32:47;18.00;60.60
32296;DHT22;18781;51.550;5.418;2022-10-01T18:35:32;17.90;61.10
32296;DHT22;18781;51.550;5.418;2022-10-01T18:38:21;17.90;61.10
32296;DHT22;18781;51.550;5.418;2022-10-01T18:41:02;17.80;61.10
32296;DHT22;18781;51.550;5.418;2022-10-01T18:43:31;17.80;61.20